createdAt,value
2023-08-02T00:00:15.012Z,97477.97
2023-08-02T00:02:42.516Z,97486.59
2023-08-02T00:05:09.125Z,97482.84
2023-08-02T00:07:35.615Z,97477.06
2023-08-02T00:10:04.512Z,97470.50
2023-08-02T00:12:31.044Z,97456.88
2023-08-02T00:14:57.509Z,97456.63
2023-08-02T00:17:25.083Z,97437.84
2023-08-02T00:19:51.574Z,97435.34
2023-08-02T00:22:18.095Z,97432.34
2023-08-02T00:24:44.593Z,97437.25
2023-08-02T00:27:11.572Z,97450.09
2023-08-02T00:29:38.230Z,97459.72
2023-08-02T00:32:05.014Z,97459.41
2023-08-02T00:34:31.524Z,97465.97
2023-08-02T00:36:58.052Z,97461.19
2023-08-02T00:39:24.625Z,97441.25
2023-08-02T00:41:51.198Z,97446.34
2023-08-02T00:44:17.687Z,97438.06
2023-08-02T00:46:44.688Z,97432.44
2023-08-02T00:49:12.035Z,97425.25
2023-08-02T00:51:38.621Z,97421.91
2023-08-02T00:54:06.528Z,97427.72
2023-08-02T00:56:33.228Z,97433.06
2023-08-02T00:59:00.042Z,97421.41
2023-08-02T01:01:28.048Z,97419.75
2023-08-02T01:03:56.153Z,97428.41
2023-08-02T01:06:32.007Z,97422.97
2023-08-02T01:09:15.984Z,97417.59
2023-08-02T01:11:55.477Z,97424.31
2023-08-02T01:14:24.739Z,97433.16
2023-08-02T01:16:52.432Z,97428.13
2023-08-02T01:19:23.613Z,97421.97
2023-08-02T01:21:50.432Z,97422.28
2023-08-02T01:24:17.934Z,97405.56
2023-08-02T01:26:48.059Z,97396.94
2023-08-02T01:29:20.373Z,97403.06
2023-08-02T01:31:48.968Z,97402.63
2023-08-02T01:34:18.081Z,97393.31
2023-08-02T01:36:44.879Z,97394.50
2023-08-02T01:39:11.830Z,97395.25
2023-08-02T01:41:38.320Z,97399.91
2023-08-02T01:44:04.995Z,97397.63
2023-08-02T01:46:31.558Z,97389.50
2023-08-02T01:48:58.062Z,97366.50
2023-08-02T01:51:25.336Z,97339.88
2023-08-02T01:53:52.060Z,97340.38
2023-08-02T01:56:18.904Z,97343.84
2023-08-02T01:58:45.406Z,97345.69
2023-08-02T02:01:12.053Z,97345.03
2023-08-02T02:03:38.805Z,97353.94
2023-08-02T02:06:05.644Z,97351.28
2023-08-02T02:08:32.287Z,97339.88
2023-08-02T02:10:58.992Z,97337.91
2023-08-02T02:13:26.393Z,97325.97
2023-08-02T02:15:53.103Z,97326.22
2023-08-02T02:18:19.919Z,97323.22
2023-08-02T02:20:46.440Z,97310.69
2023-08-02T02:23:12.962Z,97302.16
2023-08-02T02:25:39.507Z,97296.09
2023-08-02T02:28:06.084Z,97291.56
2023-08-02T02:30:33.413Z,97281.25
2023-08-02T02:33:00.109Z,97281.03
2023-08-02T02:35:27.881Z,97278.44
2023-08-02T02:37:54.606Z,97273.63
2023-08-02T02:40:21.283Z,97277.63
2023-08-02T02:42:47.852Z,97266.91
2023-08-02T02:45:15.121Z,97264.53
2023-08-02T02:47:41.771Z,97266.41
2023-08-02T02:50:08.991Z,97260.50
2023-08-02T02:52:35.567Z,97264.78
2023-08-02T02:55:02.077Z,97247.66
2023-08-02T02:57:28.608Z,97249.53
2023-08-02T02:59:55.101Z,97244.03
2023-08-02T03:02:21.720Z,97231.84
2023-08-02T03:04:48.327Z,97224.94
2023-08-02T03:07:14.850Z,97219.09
2023-08-02T03:09:41.339Z,97218.00
2023-08-02T03:12:08.617Z,97212.38
2023-08-02T03:14:35.140Z,97210.31
2023-08-02T03:17:01.681Z,97200.78
2023-08-02T03:19:28.266Z,97197.03
2023-08-02T03:21:54.755Z,97193.06
2023-08-02T03:24:21.517Z,97194.16
2023-08-02T03:26:48.276Z,97190.16
2023-08-02T03:29:14.891Z,97183.84
2023-08-02T03:31:41.754Z,97191.91
2023-08-02T03:34:08.452Z,97194.63
2023-08-02T03:36:35.588Z,97194.63
2023-08-02T03:39:02.104Z,97196.22
2023-08-02T03:41:28.672Z,97195.00
2023-08-02T03:43:55.469Z,97195.06
2023-08-02T03:46:22.129Z,97185.22
2023-08-02T03:48:48.706Z,97187.13
2023-08-02T03:51:15.208Z,97174.84
2023-08-02T03:53:41.662Z,97172.19
2023-08-02T03:56:08.173Z,97176.13
2023-08-02T03:58:34.711Z,97178.34
2023-08-02T04:01:01.313Z,97168.16
2023-08-02T04:03:27.861Z,97160.22
2023-08-02T04:05:54.379Z,97159.38
2023-08-02T04:08:20.931Z,97160.44
2023-08-02T04:10:47.653Z,97154.63
2023-08-02T04:13:14.147Z,97149.28
2023-08-02T04:15:40.654Z,97140.75
2023-08-02T04:18:07.238Z,97138.38
2023-08-02T04:20:39.502Z,97136.75
2023-08-02T04:23:06.092Z,97147.38
2023-08-02T04:25:32.958Z,97141.53
2023-08-02T04:27:59.592Z,97144.47
2023-08-02T04:30:27.184Z,97144.13
2023-08-02T04:32:55.091Z,97149.72
2023-08-02T04:35:21.948Z,97142.47
2023-08-02T04:37:48.696Z,97146.75
2023-08-02T04:40:16.095Z,97144.63
2023-08-02T04:42:43.234Z,97137.09
2023-08-02T04:45:10.486Z,97123.22
2023-08-02T04:47:37.208Z,97114.94
2023-08-02T04:50:04.087Z,97110.72
2023-08-02T04:52:33.421Z,97117.31
2023-08-02T04:55:00.041Z,97103.53
2023-08-02T04:57:26.666Z,97107.81
2023-08-02T04:59:54.872Z,97100.88
2023-08-02T05:02:30.133Z,97099.28
2023-08-02T05:04:56.654Z,97092.34
2023-08-02T05:07:23.181Z,97095.53
2023-08-02T05:09:49.657Z,97089.63
2023-08-02T05:12:16.414Z,97089.63
2023-08-02T05:14:43.234Z,97085.59
2023-08-02T05:17:10.094Z,97088.25
2023-08-02T05:19:36.622Z,97083.22
2023-08-02T05:22:03.384Z,97086.63
2023-08-02T05:24:29.922Z,97083.19
2023-08-02T05:26:56.982Z,97077.59
2023-08-02T05:29:23.816Z,97071.19
2023-08-02T05:31:50.418Z,97071.72
2023-08-02T05:34:17.124Z,97067.75
2023-08-02T05:36:43.679Z,97064.03
2023-08-02T05:39:10.415Z,97058.13
2023-08-02T05:41:36.917Z,97054.69
2023-08-02T05:44:06.124Z,97045.19
2023-08-02T05:46:32.974Z,97034.81
2023-08-02T05:48:59.517Z,97025.84
2023-08-02T05:51:26.513Z,97025.59
2023-08-02T05:53:52.981Z,97011.75
2023-08-02T05:56:19.951Z,97009.63
2023-08-02T05:58:46.802Z,97000.84
2023-08-02T06:01:13.693Z,96988.63
2023-08-02T06:03:40.438Z,96993.44
2023-08-02T06:06:07.519Z,96997.69
2023-08-02T06:08:34.144Z,96981.50
2023-08-02T06:11:02.441Z,96975.91
2023-08-02T06:13:29.777Z,96978.00
2023-08-02T06:15:56.430Z,96973.00
2023-08-02T06:18:23.174Z,96959.69
2023-08-02T06:20:49.679Z,96951.50
2023-08-02T06:23:16.177Z,96946.69
2023-08-02T06:25:46.020Z,96939.28
2023-08-02T06:28:12.701Z,96926.25
2023-08-02T06:30:39.216Z,96925.78
2023-08-02T06:33:05.770Z,96914.59
2023-08-02T06:35:32.637Z,96905.81
2023-08-02T06:37:59.227Z,96898.91
2023-08-02T06:40:25.716Z,96899.97
2023-08-02T06:42:52.221Z,96900.78
2023-08-02T06:45:18.863Z,96881.66
2023-08-02T06:47:45.457Z,96875.78
2023-08-02T06:50:12.016Z,96871.78
2023-08-02T06:52:38.507Z,96863.53
2023-08-02T06:55:05.372Z,96862.75
2023-08-02T06:57:32.574Z,96858.22
2023-08-02T06:59:59.698Z,96858.78
2023-08-02T07:02:26.349Z,96860.88
2023-08-02T07:04:58.230Z,96862.50
2023-08-02T07:07:24.937Z,96862.75
2023-08-02T07:09:51.532Z,96848.13
2023-08-02T07:12:26.727Z,96862.22
2023-08-02T07:14:53.387Z,96870.47
2023-08-02T07:17:20.049Z,96862.47
2023-08-02T07:19:46.641Z,96864.63
2023-08-02T07:22:18.498Z,96845.44
2023-08-02T07:24:45.368Z,96834.00
2023-08-02T07:27:12.014Z,96836.13
2023-08-02T07:29:38.597Z,96826.03
2023-08-02T07:32:05.623Z,96831.09
2023-08-02T07:34:34.445Z,96824.97
2023-08-02T07:37:01.027Z,96818.84
2023-08-02T07:39:27.667Z,96818.59
2023-08-02T07:41:54.188Z,96805.56
2023-08-02T07:44:20.732Z,96791.69
2023-08-02T07:46:47.438Z,96785.03
2023-08-02T07:49:14.003Z,96791.41
2023-08-02T07:51:40.788Z,96781.03
2023-08-02T07:54:07.717Z,96779.94
2023-08-02T07:56:34.367Z,96790.31
2023-08-02T07:59:04.034Z,96797.50
2023-08-02T08:01:31.358Z,96789.53
2023-08-02T08:03:58.052Z,96791.41
2023-08-02T08:06:25.352Z,96787.66
2023-08-02T08:08:52.118Z,96792.69
2023-08-02T08:11:19.125Z,96785.00
2023-08-02T08:13:45.773Z,96768.47
2023-08-02T08:16:12.337Z,96771.97
2023-08-02T08:18:38.893Z,96771.41
2023-08-02T08:21:05.955Z,96774.09
2023-08-02T08:23:33.072Z,96768.47
2023-08-02T08:25:59.593Z,96768.19
2023-08-02T08:28:26.138Z,96771.41
2023-08-02T08:31:03.720Z,96767.91
2023-08-02T08:33:32.190Z,96756.97
2023-08-02T08:35:58.991Z,96754.88
2023-08-02T08:38:25.560Z,96757.53
2023-08-02T08:40:53.836Z,96753.50
2023-08-02T08:43:21.450Z,96751.84
2023-08-02T08:45:50.595Z,96748.28
2023-08-02T08:48:17.667Z,96735.44
2023-08-02T08:50:46.167Z,96734.22
2023-08-02T08:53:19.710Z,96723.81
2023-08-02T08:55:51.036Z,96726.25
2023-08-02T08:58:18.110Z,96727.31
2023-08-02T09:00:46.095Z,96725.72
2023-08-02T09:03:14.341Z,96719.09
2023-08-02T09:05:42.041Z,96716.94
2023-08-02T09:08:12.556Z,96715.88
2023-08-02T09:10:41.313Z,96714.00
2023-08-02T09:13:24.981Z,96717.19
2023-08-02T09:16:09.601Z,96719.81
2023-08-02T09:18:47.700Z,96711.59
2023-08-02T09:21:16.684Z,96709.72
2023-08-02T09:23:56.986Z,96704.97
2023-08-02T09:26:23.623Z,96704.41
2023-08-02T09:29:08.450Z,96699.34
2023-08-02T09:31:37.948Z,96700.38
2023-08-02T09:34:05.404Z,96697.16
2023-08-02T09:36:38.876Z,96690.97
2023-08-02T09:39:15.605Z,96693.06
2023-08-02T09:44:21.176Z,96680.78
2023-08-02T09:46:47.777Z,96681.31
2023-08-02T09:49:19.122Z,96682.13
2023-08-02T09:51:46.426Z,96678.50
2023-08-02T09:54:15.070Z,96674.50
2023-08-02T09:56:43.156Z,96671.34
2023-08-02T09:59:10.200Z,96669.97
2023-08-02T10:01:38.155Z,96667.97
2023-08-02T10:04:09.990Z,96657.31
2023-08-02T10:06:45.756Z,96657.06
2023-08-02T10:09:20.157Z,96650.16
2023-08-02T10:11:56.692Z,96659.69
2023-08-02T10:14:24.222Z,96646.81
2023-08-02T10:16:53.008Z,96638.09
2023-08-02T10:19:19.617Z,96642.34
2023-08-02T10:21:47.858Z,96635.06
2023-08-02T10:24:14.821Z,96635.88
2023-08-02T10:26:43.057Z,96635.41
2023-08-02T10:29:11.482Z,96634.50
2023-08-02T10:31:38.252Z,96629.88
2023-08-02T10:34:35.875Z,96634.03
2023-08-02T10:37:03.838Z,96623.06
2023-08-02T10:39:59.814Z,96629.47
2023-08-02T10:42:32.111Z,96623.00
2023-08-02T10:44:58.602Z,96625.22
2023-08-02T10:47:28.189Z,96620.69
2023-08-02T10:49:55.920Z,96625.66
2023-08-02T10:52:24.415Z,96620.09
2023-08-02T10:55:23.373Z,96624.00
2023-08-02T10:57:56.023Z,96612.75
2023-08-02T11:00:25.407Z,96616.19
2023-08-02T11:02:52.893Z,96615.22
2023-08-02T11:05:42.934Z,96609.84
2023-08-02T11:08:10.641Z,96619.75
2023-08-02T11:10:50.588Z,96612.19
2023-08-02T11:13:17.386Z,96599.00
2023-08-02T11:15:44.716Z,96599.44
2023-08-02T11:18:11.529Z,96597.91
2023-08-02T11:20:39.662Z,96596.47
2023-08-02T11:23:22.743Z,96594.44
2023-08-02T11:26:13.693Z,96591.28
2023-08-02T11:28:44.048Z,96588.25
2023-08-02T11:31:14.285Z,96587.03
2023-08-02T11:33:41.565Z,96589.13
2023-08-02T11:36:08.756Z,96605.06
2023-08-02T11:38:39.471Z,96608.53
2023-08-02T11:41:35.963Z,96601.19
2023-08-02T11:44:02.698Z,96597.00
2023-08-02T11:46:29.401Z,96599.75
2023-08-02T11:49:06.677Z,96597.78
2023-08-02T11:51:33.148Z,96599.00
2023-08-02T11:54:01.056Z,96594.88
2023-08-02T11:56:28.798Z,96608.31
2023-08-02T11:58:59.776Z,96602.31
2023-08-02T12:01:26.827Z,96593.72
2023-08-02T12:04:02.603Z,96588.03
2023-08-02T12:06:48.877Z,96586.38
2023-08-02T12:09:16.409Z,96576.66
2023-08-02T12:11:44.394Z,96573.88
2023-08-02T12:14:10.959Z,96568.41
2023-08-02T12:16:43.838Z,96560.94
2023-08-02T12:19:11.769Z,96553.06
2023-08-02T12:21:39.766Z,96548.81
2023-08-02T12:24:14.713Z,96536.22
2023-08-02T12:26:42.156Z,96538.53
2023-08-02T12:29:09.087Z,96534.53
2023-08-02T12:31:47.362Z,96537.47
2023-08-02T12:34:13.949Z,96542.44
2023-08-02T12:36:40.791Z,96535.72
2023-08-02T12:39:07.652Z,96517.09
2023-08-02T12:41:34.212Z,96526.13
2023-08-02T12:44:04.255Z,96518.53
2023-08-02T12:46:32.586Z,96515.00
2023-08-02T12:48:59.321Z,96516.22
2023-08-02T12:51:29.259Z,96515.63
2023-08-02T12:53:55.756Z,96509.78
2023-08-02T12:56:22.456Z,96508.94
2023-08-02T12:58:52.274Z,96509.09
2023-08-02T13:01:19.134Z,96506.69
2023-08-02T13:03:46.381Z,96502.97
2023-08-02T13:06:12.999Z,96501.34
2023-08-02T13:08:39.542Z,96509.78
2023-08-02T13:11:06.259Z,96513.16
2023-08-02T13:13:32.738Z,96507.13
2023-08-02T13:15:59.237Z,96505.16
2023-08-02T13:18:27.452Z,96511.38
2023-08-02T13:20:55.761Z,96504.06
2023-08-02T13:23:22.300Z,96491.78
2023-08-02T13:25:48.909Z,96489.50
2023-08-02T13:28:17.271Z,96486.63
2023-08-02T13:30:48.917Z,96495.31
2023-08-02T13:33:15.423Z,96486.31
2023-08-02T13:35:42.430Z,96493.47
2023-08-02T13:38:10.451Z,96499.38
2023-08-02T13:40:37.145Z,96496.50
2023-08-02T13:43:04.536Z,96490.38
2023-08-02T13:45:31.219Z,96489.59
2023-08-02T13:47:58.062Z,96482.81
2023-08-02T13:50:24.946Z,96487.28
2023-08-02T13:52:51.906Z,96471.53
2023-08-02T13:55:23.907Z,96470.03
2023-08-02T13:57:50.690Z,96464.59
2023-08-02T14:00:17.729Z,96469.84
2023-08-02T14:02:44.455Z,96471.53
2023-08-02T14:05:11.691Z,96471.53
2023-08-02T14:07:44.039Z,96467.56
2023-08-02T14:10:14.164Z,96469.44
2023-08-02T14:12:43.983Z,96464.88
2023-08-02T14:15:15.526Z,96472.41
2023-08-02T14:17:42.417Z,96457.53
2023-08-02T14:20:09.957Z,96472.72
2023-08-02T14:22:36.699Z,96472.59
2023-08-02T14:25:03.475Z,96461.44
2023-08-02T14:27:30.211Z,96472.16
2023-08-02T14:29:56.915Z,96464.75
2023-08-02T14:32:23.450Z,96469.88
2023-08-02T14:34:53.314Z,96476.16
2023-08-02T14:37:19.861Z,96470.47
2023-08-02T14:39:46.439Z,96474.72
2023-08-02T14:42:13.042Z,96474.34
2023-08-02T14:44:39.621Z,96471.09
2023-08-02T14:47:06.822Z,96469.25
2023-08-02T14:49:33.652Z,96473.84
2023-08-02T14:52:00.551Z,96474.84
2023-08-02T14:54:27.507Z,96509.78
2023-08-02T14:56:54.055Z,96543.88
2023-08-02T14:59:21.175Z,96561.78
2023-08-02T15:01:48.911Z,96540.22
2023-08-02T15:04:17.756Z,96526.28
2023-08-02T15:06:44.437Z,96515.72
2023-08-02T15:09:11.305Z,96522.19
2023-08-02T15:11:37.984Z,96523.31
2023-08-02T15:14:08.174Z,96503.63
2023-08-02T15:16:34.850Z,96416.31
2023-08-02T15:19:01.534Z,96484.31
2023-08-02T15:21:28.108Z,96506.50
2023-08-02T15:23:54.615Z,96508.41
2023-08-02T15:26:26.911Z,96497.97
2023-08-02T15:29:09.946Z,96498.03
2023-08-02T15:31:41.555Z,96518.38
2023-08-02T15:34:10.943Z,96522.88
2023-08-02T15:36:37.962Z,96477.50
2023-08-02T15:39:04.664Z,96482.38
2023-08-02T15:41:38.460Z,96439.38
2023-08-02T15:44:05.626Z,96407.00
2023-08-02T15:46:33.517Z,96444.13
2023-08-02T15:49:00.372Z,96443.69
2023-08-02T15:51:27.086Z,96427.25
2023-08-02T15:53:54.861Z,96414.50
2023-08-02T15:56:21.482Z,96418.31
2023-08-02T15:58:53.434Z,96412.47
2023-08-02T16:01:23.810Z,96430.72
2023-08-02T16:03:50.413Z,96426.59
2023-08-02T16:06:16.984Z,96439.53
2023-08-02T16:08:45.451Z,96431.09
2023-08-02T16:11:11.985Z,96409.78
2023-08-02T16:13:38.794Z,96411.19
2023-08-02T16:16:05.362Z,96408.81
2023-08-02T16:18:31.931Z,96405.59
2023-08-02T16:20:58.593Z,96390.16
2023-08-02T16:23:25.175Z,96390.88
2023-08-02T16:25:51.802Z,96385.84
2023-08-02T16:28:18.382Z,96389.63
2023-08-02T16:30:44.909Z,96396.72
2023-08-02T16:33:11.608Z,96391.69
2023-08-02T16:35:38.751Z,96391.78
2023-08-02T16:38:06.071Z,96389.97
2023-08-02T16:40:32.608Z,96399.50
2023-08-02T16:43:02.887Z,96406.22
2023-08-02T16:45:31.353Z,96411.75
2023-08-02T16:47:59.117Z,96393.75
2023-08-02T16:50:27.436Z,96394.53
2023-08-02T16:52:54.128Z,96393.16
2023-08-02T16:55:22.382Z,96392.28
2023-08-02T16:57:49.233Z,96387.91
2023-08-02T17:00:16.072Z,96393.97
2023-08-02T17:02:42.684Z,96395.38
2023-08-02T17:05:09.470Z,96403.88
2023-08-02T17:07:36.189Z,96423.28
2023-08-02T17:10:02.769Z,96430.19
2023-08-02T17:12:30.439Z,96423.84
2023-08-02T17:15:04.956Z,96417.69
2023-08-02T17:17:32.137Z,96432.44
2023-08-02T17:20:00.134Z,96445.16
2023-08-02T17:22:34.519Z,96433.44
2023-08-02T17:25:01.194Z,96442.25
2023-08-02T17:27:34.254Z,96433.63
2023-08-02T17:30:00.819Z,96435.91
2023-08-02T17:32:27.387Z,96445.22
2023-08-02T17:34:55.729Z,96449.69
2023-08-02T17:37:22.304Z,96441.56
2023-08-02T17:39:54.459Z,96440.69
2023-08-02T17:42:21.140Z,96465.84
2023-08-02T17:44:47.637Z,96464.84
2023-08-02T17:47:14.158Z,96470.69
2023-08-02T17:49:41.091Z,96470.19
2023-08-02T17:52:08.281Z,96465.03
2023-08-02T17:54:35.115Z,96480.13
2023-08-02T17:57:01.708Z,96478.63
2023-08-02T17:59:28.285Z,96501.94
2023-08-02T18:01:55.431Z,96500.81
2023-08-02T18:04:24.051Z,96491.41
2023-08-02T18:06:53.008Z,96493.84
2023-08-02T18:09:19.624Z,96497.50
2023-08-02T18:11:47.713Z,96512.09
2023-08-02T18:14:42.167Z,96522.34
2023-08-02T18:17:08.796Z,96525.53
2023-08-02T18:19:47.733Z,96513.69
2023-08-02T18:23:13.850Z,96537.00
2023-08-02T18:26:33.186Z,96545.16
2023-08-02T18:32:34.549Z,96558.59
2023-08-02T18:35:01.392Z,96556.16
2023-08-02T18:37:34.162Z,96556.16
2023-08-02T18:40:06.127Z,96547.72
2023-08-02T18:42:32.793Z,96550.03
2023-08-02T18:44:59.541Z,96551.69
2023-08-02T18:47:26.094Z,96552.84
2023-08-02T18:49:53.566Z,96552.63
2023-08-02T18:52:21.914Z,96556.94
2023-08-02T18:54:48.612Z,96565.97
2023-08-02T18:57:15.685Z,96552.69
2023-08-02T18:59:46.973Z,96553.84
2023-08-02T19:02:14.666Z,96559.41
2023-08-02T19:04:44.709Z,96551.81
2023-08-02T19:07:16.228Z,96565.59
2023-08-02T19:09:42.898Z,96581.63
2023-08-02T19:12:16.798Z,96583.53
2023-08-02T19:14:46.590Z,96594.75
2023-08-02T19:17:16.994Z,96597.31
2023-08-02T19:19:44.548Z,96601.44
2023-08-02T19:22:14.371Z,96610.69
2023-08-02T19:24:44.005Z,96614.28
2023-08-02T19:27:14.157Z,96621.34
2023-08-02T19:29:44.478Z,96614.91
2023-08-02T19:32:23.192Z,96623.78
2023-08-02T19:34:55.364Z,96631.78
2023-08-02T19:37:31.027Z,96639.41
2023-08-02T19:39:57.865Z,96639.13
2023-08-02T19:42:24.783Z,96651.72
2023-08-02T19:44:51.802Z,96651.88
2023-08-02T19:47:25.190Z,96659.47
2023-08-02T19:49:53.252Z,96661.13
2023-08-02T19:52:24.250Z,96671.97
2023-08-02T19:54:51.853Z,96673.66
2023-08-02T19:57:18.811Z,96664.16
2023-08-02T19:59:46.353Z,96674.50
2023-08-02T20:02:21.103Z,96678.25
2023-08-02T20:04:48.139Z,96684.13
2023-08-02T20:07:15.390Z,96690.69
2023-08-02T20:09:46.981Z,96690.75
2023-08-02T20:12:13.977Z,96693.97
2023-08-02T20:14:41.143Z,96690.19
2023-08-02T20:17:12.740Z,96688.91
2023-08-02T20:19:39.635Z,96694.47
2023-08-02T20:22:13.646Z,96690.31
2023-08-02T20:24:40.287Z,96693.59
2023-08-02T20:27:12.392Z,96696.09
2023-08-02T20:29:41.595Z,96697.50
2023-08-02T20:32:18.478Z,96703.63
2023-08-02T20:34:45.203Z,96695.16
2023-08-02T20:37:12.198Z,96699.66
2023-08-02T20:39:43.938Z,96706.22
2023-08-02T20:42:11.653Z,96702.91
2023-08-02T20:44:38.332Z,96703.81
2023-08-02T20:47:12.353Z,96704.31
2023-08-02T20:49:39.263Z,96711.13
2023-08-02T20:52:07.847Z,96718.31
2023-08-02T20:54:34.824Z,96716.38
2023-08-02T20:57:03.115Z,96724.88
2023-08-02T20:59:31.982Z,96724.47
2023-08-02T21:01:58.517Z,96716.09
2023-08-02T21:04:25.351Z,96733.00
2023-08-02T21:07:09.592Z,96720.13
2023-08-02T21:09:38.176Z,96716.34
2023-08-02T21:12:05.066Z,96725.34
2023-08-02T21:14:31.568Z,96725.34
2023-08-02T21:16:58.133Z,96721.69
2023-08-02T21:19:27.631Z,96723.69
2023-08-02T21:21:57.653Z,96721.72
2023-08-02T21:24:25.685Z,96720.56
2023-08-02T21:26:53.185Z,96727.28
2023-08-02T21:29:21.431Z,96731.63
2023-08-02T21:31:52.445Z,96740.28
2023-08-02T21:34:19.836Z,96736.88
2023-08-02T21:36:46.455Z,96747.50
2023-08-02T21:39:13.157Z,96739.63
2023-08-02T21:41:39.772Z,96735.94
2023-08-02T21:44:06.273Z,96755.97
2023-08-02T21:46:35.495Z,96736.63
2023-08-02T21:49:02.168Z,96743.09
2023-08-02T21:51:28.900Z,96746.06
2023-08-02T21:53:56.020Z,96742.59
2023-08-02T21:56:25.006Z,96741.25
2023-08-02T21:59:00.060Z,96739.06
2023-08-02T22:01:28.059Z,96737.38
2023-08-02T22:03:54.721Z,96748.06
2023-08-02T22:06:28.774Z,96754.66
2023-08-02T22:08:56.232Z,96731.41
2023-08-02T22:11:24.332Z,96737.25
2023-08-02T22:13:51.435Z,96739.63
2023-08-02T22:16:18.484Z,96735.72
2023-08-02T22:18:45.375Z,96752.56
2023-08-02T22:21:13.512Z,96758.81
2023-08-02T22:23:42.867Z,96753.03
2023-08-02T22:26:09.385Z,96748.53
2023-08-02T22:28:35.906Z,96765.94
2023-08-02T22:31:02.440Z,96768.63
2023-08-02T22:33:28.984Z,96773.16
2023-08-02T22:35:55.487Z,96763.13
2023-08-02T22:38:30.490Z,96765.50
2023-08-02T22:41:00.771Z,96767.88
2023-08-02T22:43:27.366Z,96775.22
2023-08-02T22:45:53.972Z,96782.34
2023-08-02T22:48:54.662Z,96776.16
2023-08-02T22:51:07.147Z,96765.41
2023-08-02T22:53:34.289Z,96773.88
2023-08-02T22:56:03.508Z,96776.84
2023-08-02T22:58:30.009Z,96768.78
2023-08-02T23:00:56.505Z,96789.34
2023-08-02T23:03:44.052Z,96776.16
2023-08-02T23:06:26.990Z,96779.69
2023-08-02T23:08:53.560Z,96788.72
2023-08-02T23:11:21.725Z,96782.22
2023-08-02T23:13:52.277Z,96784.81
2023-08-02T23:16:26.550Z,96786.38
2023-08-02T23:18:57.438Z,96788.81
2023-08-02T23:21:33.012Z,96783.47
2023-08-02T23:23:59.656Z,96783.66
2023-08-02T23:26:27.357Z,96787.09
2023-08-02T23:28:55.645Z,96782.78
2023-08-02T23:31:24.732Z,96782.28
2023-08-02T23:33:51.930Z,96794.41
2023-08-02T23:36:18.488Z,96800.31
2023-08-02T23:38:44.954Z,96787.97
2023-08-02T23:41:11.517Z,96777.44
2023-08-02T23:43:42.023Z,96797.28
2023-08-02T23:49:14.525Z,96806.66
2023-08-02T23:51:45.029Z,96808.59
2023-08-02T23:54:14.773Z,96799.25
2023-08-02T23:56:52.871Z,96801.06
2023-08-02T23:59:26.954Z,96816.84
